Wingett Run, Ohio
Current Conditions -  °F | °C
As of 4:28 PM on Wednesday 26 Nov 2014 (Local Time) from KPKB Reporting Station
Broken Clouds Broken Clouds  
Wind Chill: 38°   Ceiling: 4300
Heat Index: 38°   Visibility: 8mi
Dew Point: 32°   Wind: 3mph
Humidity: 79%   Direction: 110°ESE
Pressure: 30.04"   Gusts: NA
Location:  39.54°N, 81.24°W
Report Text: KPKB 262128Z 11003KT 8SM FEW014 SCT020 BKN043 03/00 A3004 RMK AO2 T00330000
Loading
Personal Weather Stations






























Interactive Weather Map New forecast layout! Learn more

10-Day Weather Forecast

Advertisements
Track Severe Weather on mobile